Time;durP1;ratioP1;P1;durP2;ratioP2;P2;SDS_P1;SDS_P2;PMS_P1;PMS_P2;Temp;Humidity;BMP_temperature;BMP_pressure;BME280_temperature;BME280_humidity;BME280_pressure;Samples;Min_cycle;Max_cycle;Signal;HPM_P1;HPM_P2
2021/01/21 00:00:36;;;;;;;28.27;14.85;;;-1.70;99.90;;;;;;4995564;28;20071;-73
2021/01/21 00:03:02;;;;;;;27.90;13.50;;;-1.70;99.90;;;;;;4986193;28;20519;-73
2021/01/21 00:05:28;;;;;;;34.35;14.48;;;-1.10;99.90;;;;;;4970568;28;20078;-73
2021/01/21 00:07:53;;;;;;;34.13;16.77;;;-1.30;99.90;;;;;;4972477;28;20118;-72
2021/01/21 00:10:19;;;;;;;25.73;13.23;;;-1.60;99.90;;;;;;4984646;28;20085;-73
2021/01/21 00:12:45;;;;;;;24.23;14.30;;;-1.80;99.90;;;;;;4999702;28;20094;-74
2021/01/21 00:15:10;;;;;;;25.73;12.97;;;-1.90;99.90;;;;;;4971110;28;20075;-74
2021/01/21 00:17:36;;;;;;;26.07;13.07;;;-2.00;99.90;;;;;;4971011;28;20094;-74
2021/01/21 00:20:02;;;;;;;28.87;13.93;;;-1.90;99.90;;;;;;4971867;28;20174;-74
2021/01/21 00:22:28;;;;;;;30.13;13.13;;;-1.40;99.90;;;;;;4971049;28;20630;-74
2021/01/21 00:24:53;;;;;;;30.00;12.97;;;-1.40;99.90;;;;;;4977254;28;20079;-75
2021/01/21 00:27:19;;;;;;;27.40;13.97;;;-1.10;99.90;;;;;;4971094;28;20075;-75
2021/01/21 00:29:44;;;;;;;23.33;11.27;;;-1.30;99.90;;;;;;4973684;28;20105;-73
2021/01/21 00:32:10;;;;;;;23.02;10.68;;;-1.80;99.90;;;;;;4973502;28;20079;-74
2021/01/21 00:34:35;;;;;;;23.80;11.68;;;-2.00;99.90;;;;;;4970194;28;20177;-74
2021/01/21 00:37:01;;;;;;;30.50;13.13;;;-1.60;99.90;;;;;;4969666;28;20159;-74
2021/01/21 00:39:26;;;;;;;21.07;10.10;;;-1.40;99.90;;;;;;4973012;28;20099;-74
2021/01/21 00:41:52;;;;;;;22.37;11.03;;;-1.70;99.90;;;;;;4976305;28;20135;-74
2021/01/21 00:44:18;;;;;;;17.87;8.80;;;-1.60;99.90;;;;;;4974789;28;20162;-74
2021/01/21 00:46:43;;;;;;;17.23;8.43;;;-1.70;99.90;;;;;;4970260;28;20115;-73
2021/01/21 00:49:09;;;;;;;20.63;10.30;;;-1.50;99.90;;;;;;4970502;28;20528;-74
2021/01/21 00:51:34;;;;;;;18.07;9.30;;;-1.20;99.90;;;;;;4969860;28;20094;-74
2021/01/21 00:54:00;;;;;;;19.13;9.80;;;-1.70;99.90;;;;;;4984906;28;20099;-73
2021/01/21 00:56:26;;;;;;;20.70;10.83;;;-1.90;99.90;;;;;;4968859;28;20083;-74
2021/01/21 00:58:51;;;;;;;23.77;10.70;;;-2.00;99.90;;;;;;4970255;28;20186;-73
2021/01/21 01:01:17;;;;;;;19.80;10.30;;;-2.10;99.90;;;;;;4974952;28;20129;-74
2021/01/21 01:03:43;;;;;;;15.03;8.27;;;-2.20;99.90;;;;;;4984736;28;20102;-73
2021/01/21 01:06:09;;;;;;;16.50;8.60;;;-1.80;99.90;;;;;;4969939;28;20070;-74
2021/01/21 01:08:35;;;;;;;17.20;7.93;;;-1.60;99.90;;;;;;4972522;28;20071;-74
2021/01/21 01:11:01;;;;;;;13.87;7.13;;;-1.50;99.90;;;;;;4977773;28;20079;-73
2021/01/21 01:13:27;;;;;;;15.13;7.57;;;-1.40;99.90;;;;;;4971417;28;20126;-73
2021/01/21 01:15:52;;;;;;;17.93;8.27;;;-2.00;99.90;;;;;;4969754;28;20071;-75
2021/01/21 01:18:18;;;;;;;14.63;7.67;;;-1.80;99.90;;;;;;4971423;28;20082;-75
2021/01/21 01:20:44;;;;;;;14.70;7.20;;;-1.50;99.90;;;;;;4970141;28;20459;-74
2021/01/21 01:23:10;;;;;;;18.03;9.03;;;-1.90;99.90;;;;;;4976060;28;20102;-73
2021/01/21 01:25:36;;;;;;;14.77;7.70;;;-2.20;99.90;;;;;;4967314;28;20082;-73
2021/01/21 01:28:02;;;;;;;13.13;6.97;;;-2.30;99.90;;;;;;4968297;28;20110;-73
2021/01/21 01:30:28;;;;;;;12.13;6.87;;;-2.40;99.90;;;;;;4970481;28;20079;-75
2021/01/21 01:32:54;;;;;;;17.57;8.67;;;-2.40;99.90;;;;;;4969582;28;20091;-74
2021/01/21 01:35:20;;;;;;;13.67;7.33;;;-2.00;99.90;;;;;;4968311;28;20563;-73
2021/01/21 01:37:45;;;;;;;18.37;8.70;;;-2.30;99.90;;;;;;4968984;28;20079;-74
2021/01/21 01:40:12;;;;;;;11.77;7.37;;;-2.10;99.90;;;;;;4975507;28;20095;-74
2021/01/21 01:42:39;;;;;;;16.90;7.77;;;-2.10;99.90;;;;;;4968923;28;20098;-74
2021/01/21 01:45:09;;;;;;;12.80;7.03;;;-2.10;99.90;;;;;;4968458;28;20110;-74
2021/01/21 01:47:38;;;;;;;14.43;7.15;;;-2.30;99.90;;;;;;4969047;28;20075;-74
2021/01/21 01:50:04;;;;;;;13.65;8.63;;;-1.90;99.90;;;;;;4971630;28;20083;-73
2021/01/21 01:52:30;;;;;;;13.15;7.45;;;-2.00;99.90;;;;;;4970317;28;20083;-73
2021/01/21 01:54:56;;;;;;;12.93;6.63;;;-2.10;99.90;;;;;;4999462;28;20090;-74
2021/01/21 01:57:23;;;;;;;14.00;7.77;;;-2.20;99.90;;;;;;4988695;28;20097;-74
2021/01/21 01:59:53;;;;;;;14.70;6.63;;;-2.00;99.90;;;;;;4973457;28;20094;-74
2021/01/21 02:02:19;;;;;;;9.73;6.03;;;-1.70;99.90;;;;;;4969615;28;20443;-74
2021/01/21 02:04:45;;;;;;;10.88;6.53;;;-1.60;99.90;;;;;;4969281;28;20166;-74
2021/01/21 02:07:11;;;;;;;12.45;7.07;;;-2.10;99.90;;;;;;4968591;28;20436;-74
2021/01/21 02:09:37;;;;;;;14.68;6.90;;;-2.00;99.90;;;;;;4984369;28;20086;-74
2021/01/21 02:12:40;;;;;;;14.50;7.03;;;-2.20;99.90;;;;;;4983707;28;20094;-74
2021/01/21 02:15:13;;;;;;;16.05;6.72;;;-2.30;99.90;;;;;;4986156;28;20082;-73
2021/01/21 02:17:50;;;;;;;10.17;5.27;;;-2.20;99.90;;;;;;4970051;28;20102;-74
2021/01/21 02:20:21;;;;;;;17.47;8.90;;;-2.10;99.90;;;;;;4985558;28;20097;-73
2021/01/21 02:23:09;;;;;;;26.52;11.95;;;-2.40;99.90;;;;;;4990602;28;20190;-74
2021/01/21 02:25:43;;;;;;;48.53;19.40;;;-2.30;99.90;;;;;;4968670;28;20087;-74
2021/01/21 02:28:09;;;;;;;71.47;24.33;;;-2.30;99.90;;;;;;4994448;28;20081;-74
2021/01/21 02:30:49;;;;;;;62.43;24.77;;;-2.10;99.90;;;;;;4971061;28;20094;-74
2021/01/21 02:33:52;;;;;;;91.37;28.90;;;-2.20;99.90;;;;;;4970474;28;20627;-73
2021/01/21 02:36:20;;;;;;;61.57;21.43;;;-2.30;99.90;;;;;;4969855;28;20077;-73
2021/01/21 02:38:46;;;;;;;48.83;19.87;;;-2.20;99.90;;;;;;4970706;28;20142;-74
2021/01/21 02:41:13;;;;;;;28.13;11.57;;;-2.20;99.90;;;;;;4969661;28;20149;-74
2021/01/21 02:43:39;;;;;;;23.40;10.90;;;-2.10;99.90;;;;;;4968566;28;20593;-74
2021/01/21 02:46:04;;;;;;;49.97;18.03;;;-2.00;99.90;;;;;;4968441;28;20083;-73
2021/01/21 02:48:31;;;;;;;42.50;14.90;;;-1.90;99.90;;;;;;4968042;28;20166;-72
2021/01/21 02:51:04;;;;;;;24.27;10.43;;;-1.90;99.90;;;;;;4978373;28;20082;-74
2021/01/21 02:53:31;;;;;;;28.27;11.53;;;-1.90;99.90;;;;;;4994112;28;20470;-74
2021/01/21 02:56:15;;;;;;;24.97;10.83;;;-1.90;99.90;;;;;;4999770;28;20122;-73
2021/01/21 02:58:44;;;;;;;22.33;10.50;;;-2.00;99.90;;;;;;4969663;28;20756;-73
2021/01/21 03:01:13;;;;;;;22.73;10.63;;;-2.30;99.90;;;;;;4981467;28;20080;-74
2021/01/21 03:03:40;;;;;;;21.27;9.82;;;-2.40;99.90;;;;;;4977446;28;20185;-74
2021/01/21 03:06:07;;;;;;;20.53;9.00;;;-2.40;99.90;;;;;;4989789;28;20079;-74
2021/01/21 03:08:33;;;;;;;13.27;8.43;;;-2.50;99.90;;;;;;4971966;28;21940;-74
2021/01/21 03:11:10;;;;;;;13.97;7.80;;;-2.40;99.90;;;;;;4971054;28;20094;-74
2021/01/21 03:13:36;;;;;;;12.80;7.50;;;-2.20;99.90;;;;;;4986922;28;20105;-72
2021/01/21 03:16:02;;;;;;;12.63;8.07;;;-2.10;99.90;;;;;;4972012;28;20462;-74
2021/01/21 03:18:27;;;;;;;15.70;8.23;;;-2.00;99.90;;;;;;4971907;28;20102;-74
2021/01/21 03:20:53;;;;;;;13.23;7.00;;;-2.00;99.90;;;;;;4972778;28;20465;-74
2021/01/21 03:23:18;;;;;;;10.87;7.47;;;-2.00;99.90;;;;;;4985207;28;20582;-74
2021/01/21 03:25:44;;;;;;;10.27;7.60;;;-2.10;99.90;;;;;;5009527;28;20552;-74
2021/01/21 03:28:10;;;;;;;9.77;6.70;;;-2.20;99.90;;;;;;5012419;28;20075;-74
2021/01/21 03:30:35;;;;;;;11.05;7.13;;;-2.40;99.90;;;;;;5001108;28;20075;-74
2021/01/21 03:33:01;;;;;;;11.97;7.77;;;-2.30;99.90;;;;;;4992902;28;20093;-73
2021/01/21 03:35:26;;;;;;;11.67;6.83;;;-2.20;99.90;;;;;;4979670;28;20089;-75
2021/01/21 03:37:53;;;;;;;11.15;7.18;;;-2.10;99.90;;;;;;4980163;28;20079;-73
2021/01/21 03:40:18;;;;;;;9.23;6.63;;;-2.10;99.90;;;;;;4970346;28;20107;-74
2021/01/21 03:42:44;;;;;;;9.03;7.53;;;-2.20;99.90;;;;;;4972234;28;20118;-73
2021/01/21 03:45:10;;;;;;;10.38;6.82;;;-2.20;99.90;;;;;;4971557;28;20522;-74
2021/01/21 03:47:35;;;;;;;12.73;7.63;;;-2.30;99.90;;;;;;4991225;28;20173;-74
2021/01/21 03:50:01;;;;;;;11.17;7.60;;;-2.20;99.90;;;;;;4972678;28;20158;-73
2021/01/21 03:52:26;;;;;;;11.40;7.30;;;-2.10;99.90;;;;;;4974158;28;20106;-74
2021/01/21 03:54:52;;;;;;;13.40;7.97;;;-2.00;99.90;;;;;;4977482;28;20091;-73
2021/01/21 03:57:18;;;;;;;12.43;8.33;;;-1.80;99.90;;;;;;4980324;28;20503;-74
2021/01/21 03:59:43;;;;;;;11.43;7.67;;;-1.90;99.90;;;;;;4977646;28;20558;-74
2021/01/21 04:02:09;;;;;;;17.03;9.90;;;-1.90;99.90;;;;;;4992114;28;20071;-73
2021/01/21 04:04:34;;;;;;;18.20;9.20;;;-1.80;99.90;;;;;;4977491;28;20087;-73
2021/01/21 04:07:00;;;;;;;20.27;10.87;;;-1.90;99.90;;;;;;4972477;28;20089;-73
2021/01/21 04:09:25;;;;;;;17.40;11.10;;;-1.90;99.90;;;;;;4991376;28;20539;-74
2021/01/21 04:11:52;;;;;;;15.77;9.57;;;-2.10;99.90;;;;;;5003838;28;20081;-74
2021/01/21 04:14:18;;;;;;;17.10;9.03;;;-1.90;99.90;;;;;;4972304;28;20099;-74
2021/01/21 04:16:43;;;;;;;12.83;8.53;;;-1.80;99.90;;;;;;4973572;28;20607;-73
2021/01/21 04:19:09;;;;;;;12.43;8.23;;;-1.60;99.90;;;;;;4972111;28;20105;-73
2021/01/21 04:21:34;;;;;;;14.63;9.33;;;-1.50;99.90;;;;;;4972311;28;20165;-73
2021/01/21 04:24:00;;;;;;;12.93;8.40;;;-1.60;99.90;;;;;;4971211;28;20095;-71
2021/01/21 04:26:27;;;;;;;14.60;8.73;;;-2.00;99.90;;;;;;4973093;28;20086;-73
2021/01/21 04:28:52;;;;;;;12.97;8.80;;;-2.20;99.90;;;;;;4984209;28;20094;-74
2021/01/21 04:31:18;;;;;;;14.35;9.48;;;-2.10;99.90;;;;;;4976772;28;20122;-74
2021/01/21 04:33:44;;;;;;;18.23;10.17;;;-1.80;99.90;;;;;;4972602;28;20110;-74
2021/01/21 04:36:10;;;;;;;17.43;10.27;;;-1.70;99.90;;;;;;4971281;28;20133;-74
2021/01/21 04:38:35;;;;;;;23.88;9.23;;;-1.50;99.90;;;;;;4971958;28;20106;-73
2021/01/21 04:41:01;;;;;;;15.23;9.43;;;-1.50;99.90;;;;;;4971530;28;20214;-74
2021/01/21 04:43:27;;;;;;;18.90;10.10;;;-1.40;99.90;;;;;;4971973;28;20711;-74
2021/01/21 04:45:53;;;;;;;20.17;9.23;;;-1.60;99.90;;;;;;4971736;28;20087;-74
2021/01/21 04:48:20;;;;;;;15.97;9.30;;;-1.60;99.90;;;;;;4972085;28;20086;-74
2021/01/21 04:50:48;;;;;;;14.73;8.67;;;-1.40;99.90;;;;;;4986170;28;20071;-74
2021/01/21 04:53:15;;;;;;;15.90;8.23;;;-1.40;99.90;;;;;;4971300;28;20107;-73
2021/01/21 04:55:43;;;;;;;15.53;9.23;;;-1.90;99.90;;;;;;4969185;28;20099;-73
2021/01/21 04:58:34;;;;;;;13.50;8.50;;;-1.90;99.90;;;;;;4971872;28;20081;-74
2021/01/21 05:01:00;;;;;;;15.33;9.30;;;-2.10;99.90;;;;;;4970645;28;20079;-73
2021/01/21 05:03:27;;;;;;;13.90;9.33;;;-2.10;99.90;;;;;;4970439;28;20440;-74
2021/01/21 05:05:53;;;;;;;11.57;7.77;;;-2.20;99.90;;;;;;4970838;28;20087;-74
2021/01/21 05:08:20;;;;;;;14.13;8.77;;;-1.80;99.90;;;;;;4983910;28;20472;-71
2021/01/21 05:10:46;;;;;;;14.97;8.20;;;-1.50;99.90;;;;;;4970067;28;20503;-73
2021/01/21 05:13:12;;;;;;;11.83;8.00;;;-1.70;99.90;;;;;;4971164;28;20459;-72
2021/01/21 05:15:38;;;;;;;13.63;7.77;;;-1.60;99.90;;;;;;4970789;28;20083;-73
2021/01/21 05:18:04;;;;;;;14.97;8.30;;;-2.00;99.90;;;;;;4970346;28;20084;-74
2021/01/21 05:20:35;;;;;;;12.67;7.80;;;-2.20;99.90;;;;;;4980230;28;20094;-73
2021/01/21 05:23:03;;;;;;;11.03;6.97;;;-1.80;99.90;;;;;;4980706;28;20135;-74
2021/01/21 05:25:30;;;;;;;16.27;8.23;;;-2.30;99.90;;;;;;4970786;28;20105;-73
2021/01/21 05:27:57;;;;;;;12.30;7.47;;;-2.70;99.90;;;;;;4971353;28;20154;-74
2021/01/21 05:30:30;;;;;;;13.87;8.60;;;-2.30;99.90;;;;;;4983312;28;20117;-73
2021/01/21 05:32:58;;;;;;;12.67;8.20;;;-2.40;99.90;;;;;;4971617;28;20961;-72
2021/01/21 05:35:25;;;;;;;13.00;7.47;;;-2.30;99.90;;;;;;4969646;28;20075;-74
2021/01/21 05:37:54;;;;;;;11.20;7.70;;;-2.20;99.90;;;;;;4975365;28;20075;-74
2021/01/21 05:40:25;;;;;;;15.60;9.13;;;-1.90;99.90;;;;;;4985286;28;20102;-73
2021/01/21 05:42:52;;;;;;;10.77;7.20;;;-1.90;99.90;;;;;;4970887;28;20142;-73
2021/01/21 05:45:19;;;;;;;12.97;8.30;;;-1.70;99.90;;;;;;4981209;28;20071;-74
2021/01/21 05:47:53;;;;;;;12.37;8.17;;;-2.00;99.90;;;;;;4972302;28;20138;-74
2021/01/21 05:50:20;;;;;;;15.17;8.17;;;-2.30;99.90;;;;;;4970685;28;20079;-73
2021/01/21 05:52:45;;;;;;;13.23;7.60;;;-2.40;99.90;;;;;;4975033;28;20098;-72
2021/01/21 05:55:11;;;;;;;13.07;7.20;;;-2.50;99.90;;;;;;4979826;28;20079;-73
2021/01/21 05:57:37;;;;;;;13.50;8.37;;;-2.40;99.90;;;;;;4987576;28;20079;-73
2021/01/21 06:00:04;;;;;;;16.03;8.20;;;-2.20;99.90;;;;;;4985526;28;20543;-73
2021/01/21 06:02:30;;;;;;;12.83;8.17;;;-2.20;99.90;;;;;;4972170;28;20167;-73
2021/01/21 06:05:00;;;;;;;13.53;8.10;;;-2.10;99.90;;;;;;4982096;28;20157;-74
2021/01/21 06:07:30;;;;;;;8.93;6.40;;;-2.20;99.90;;;;;;4980961;28;20067;-73
2021/01/21 06:09:58;;;;;;;11.93;7.23;;;-2.40;99.90;;;;;;4985408;28;20149;-73
2021/01/21 06:12:26;;;;;;;9.00;6.63;;;-2.60;99.90;;;;;;4971933;28;20491;-73
2021/01/21 06:14:57;;;;;;;11.33;7.83;;;-2.70;99.90;;;;;;4980334;28;20086;-73
2021/01/21 06:17:23;;;;;;;11.73;6.77;;;-2.60;99.90;;;;;;4979131;28;20079;-74
2021/01/21 06:19:49;;;;;;;10.53;7.30;;;-2.50;99.90;;;;;;4974180;28;20102;-74
2021/01/21 06:22:17;;;;;;;11.83;9.03;;;-2.60;99.90;;;;;;4970190;28;20138;-74
2021/01/21 06:24:46;;;;;;;11.40;6.40;;;-2.70;99.90;;;;;;4977215;28;20849;-74
2021/01/21 06:27:14;;;;;;;10.83;6.60;;;-2.60;99.90;;;;;;4982344;28;20167;-74
2021/01/21 06:29:46;;;;;;;9.93;6.30;;;-2.60;99.90;;;;;;4973365;28;20150;-74
2021/01/21 06:32:16;;;;;;;11.53;6.60;;;-2.60;99.90;;;;;;4964012;28;20082;-74
2021/01/21 06:34:43;;;;;;;8.87;6.33;;;-2.60;99.90;;;;;;4964066;28;20558;-73
2021/01/21 06:37:18;;;;;;;11.00;6.07;;;-2.40;99.90;;;;;;4999815;28;20122;-73
2021/01/21 06:40:14;;;;;;;11.63;7.25;;;-2.50;99.90;;;;;;4987369;28;20129;-75
2021/01/21 06:42:45;;;;;;;10.17;5.73;;;-2.60;99.90;;;;;;4962583;28;20095;-73
2021/01/21 06:45:11;;;;;;;10.77;6.43;;;-2.70;99.90;;;;;;4975291;28;20494;-74
2021/01/21 06:47:37;;;;;;;11.17;5.93;;;-2.70;99.90;;;;;;4972969;28;20182;-74
2021/01/21 06:50:05;;;;;;;11.83;5.90;;;-2.50;99.90;;;;;;4976073;28;20166;-74
2021/01/21 06:52:35;;;;;;;8.93;5.60;;;-2.30;99.90;;;;;;4973683;28;20496;-74
2021/01/21 06:55:04;;;;;;;9.30;5.00;;;-2.40;99.90;;;;;;4971768;28;20082;-74
2021/01/21 06:57:35;;;;;;;6.37;4.67;;;-2.30;99.90;;;;;;4986932;28;20074;-75
2021/01/21 07:00:01;;;;;;;7.70;4.50;;;-2.20;99.90;;;;;;4979808;28;20102;-74
2021/01/21 07:02:44;;;;;;;8.80;4.37;;;-1.90;99.90;;;;;;4979499;28;20149;-78
2021/01/21 07:05:14;;;;;;;8.97;4.37;;;-1.70;99.90;;;;;;4995697;28;20071;-77
2021/01/21 07:08:13;;;;;;;7.43;4.10;;;-2.00;99.90;;;;;;4987608;28;20081;-74
2021/01/21 07:10:45;;;;;;;6.83;4.50;;;-2.10;99.90;;;;;;4975421;28;20105;-76
2021/01/21 07:13:19;;;;;;;6.97;3.73;;;-2.30;99.90;;;;;;4973913;28;20095;-77
2021/01/21 07:15:59;;;;;;;5.68;3.60;;;-2.20;99.90;;;;;;4978815;28;20075;-75
2021/01/21 07:18:31;;;;;;;5.53;3.40;;;-2.20;99.90;;;;;;4983833;28;20093;-76
2021/01/21 07:21:22;;;;;;;4.87;3.73;;;-2.00;99.90;;;;;;4985012;28;20078;-74
2021/01/21 07:23:53;;;;;;;5.97;3.63;;;-1.90;99.90;;;;;;4987316;28;20099;-73
2021/01/21 07:26:28;;;;;;;5.63;3.50;;;-1.90;99.90;;;;;;4977221;28;20073;-73
2021/01/21 07:29:01;;;;;;;;;;;-2.00;99.90;;;;;;4982933;28;20774;-73
2021/01/21 07:31:27;;;;;;;5.27;3.03;;;-2.00;99.90;;;;;;4985860;28;20024;-73
2021/01/21 07:34:28;;;;;;;5.53;3.20;;;-1.90;99.90;;;;;;4976499;28;20102;-73
2021/01/21 07:37:22;;;;;;;5.23;3.30;;;-1.80;99.90;;;;;;4947519;28;20128;-72
2021/01/21 07:39:50;;;;;;;7.43;3.40;;;-1.60;99.90;;;;;;4985034;28;20529;-73
2021/01/21 07:42:16;;;;;;;5.97;3.23;;;-1.60;99.90;;;;;;4972969;28;20954;-73
2021/01/21 07:44:55;;;;;;;5.43;3.93;;;-1.70;99.90;;;;;;4982119;28;20063;-72
2021/01/21 07:47:35;;;;;;;4.43;2.73;;;-1.50;99.90;;;;;;4980190;28;20165;-73
2021/01/21 07:50:33;;;;;;;5.63;2.80;;;-1.60;99.90;;;;;;4980176;28;20102;-73
2021/01/21 07:53:03;;;;;;;4.03;2.83;;;-1.50;99.90;;;;;;4979805;28;20103;-73
2021/01/21 07:55:37;;;;;;;5.07;2.77;;;-1.20;99.90;;;;;;4978920;28;20090;-74
2021/01/21 07:58:21;;;;;;;5.88;3.47;;;-1.20;99.90;;;;;;4988844;28;20141;-73
2021/01/21 08:00:52;;;;;;;6.97;3.40;;;-1.10;99.90;;;;;;4981504;28;20079;-73
2021/01/21 08:03:30;;;;;;;8.73;3.90;;;-1.10;99.90;;;;;;4974669;28;20174;-73
2021/01/21 08:06:10;;;;;;;5.17;3.00;;;-1.00;99.90;;;;;;4971408;28;20178;-73
2021/01/21 08:08:37;;;;;;;4.13;2.70;;;-1.00;99.90;;;;;;4971185;28;20149;-72
2021/01/21 08:11:16;;;;;;;2.97;1.97;;;-1.10;99.90;;;;;;4983177;28;20079;-73
2021/01/21 08:13:42;;;;;;;2.30;1.60;;;-1.10;99.90;;;;;;4990420;28;20094;-72
2021/01/21 08:16:12;;;;;;;2.90;2.23;;;-1.00;99.90;;;;;;4971491;28;20162;-72
2021/01/21 08:18:38;;;;;;;3.63;1.95;;;-1.00;99.90;;;;;;4975658;28;20082;-72
2021/01/21 08:21:19;;;;;;;4.10;2.40;;;-0.90;99.90;;;;;;4976854;28;20087;-73
2021/01/21 08:23:59;;;;;;;4.80;2.50;;;-0.80;99.90;;;;;;4975961;28;20099;-74
2021/01/21 08:26:30;;;;;;;8.13;4.38;;;-0.70;99.90;;;;;;4971252;28;20079;-73
2021/01/21 08:28:56;;;;;;;6.75;4.00;;;-0.80;99.90;;;;;;4975897;28;20091;-73
2021/01/21 08:31:41;;;;;;;6.40;3.20;;;-0.80;99.90;;;;;;4983402;28;20470;-73
2021/01/21 08:34:12;;;;;;;7.63;3.60;;;-0.80;99.90;;;;;;4977916;28;20117;-74
2021/01/21 08:36:38;;;;;;;5.05;3.60;;;-0.60;99.90;;;;;;4970538;28;20110;-71
2021/01/21 08:39:04;;;;;;;9.32;3.83;;;-0.60;99.90;;;;;;4973658;28;20139;-73
2021/01/21 08:41:30;;;;;;;4.80;2.55;;;-0.40;99.90;;;;;;4971831;28;20511;-72
2021/01/21 08:44:00;;;;;;;8.13;4.88;;;-0.20;99.90;;;;;;4976522;28;20557;-73
2021/01/21 08:46:27;;;;;;;7.80;5.03;;;-0.20;99.90;;;;;;4972942;28;20079;-73
2021/01/21 08:48:52;;;;;;;9.07;4.90;;;-0.10;99.90;;;;;;4982996;28;20078;-73
2021/01/21 08:51:37;;;;;;;5.95;3.42;;;0.00;99.90;;;;;;4972454;28;20150;-73
2021/01/21 08:54:13;;;;;;;6.63;3.65;;;0.10;99.90;;;;;;4976190;28;20458;-73
2021/01/21 08:56:39;;;;;;;4.30;2.58;;;0.20;99.90;;;;;;4980657;28;20512;-73
2021/01/21 08:59:30;;;;;;;4.75;2.22;;;0.50;99.90;;;;;;4971533;28;20087;-72
2021/01/21 09:01:56;;;;;;;1.95;0.98;;;0.90;99.90;;;;;;4974318;28;20086;-73
2021/01/21 09:04:27;;;;;;;3.72;1.45;;;1.70;99.90;;;;;;4973522;28;20079;-73
2021/01/21 09:06:55;;;;;;;4.20;1.73;;;2.90;99.90;;;;;;4987437;28;20082;-73
2021/01/21 09:09:34;;;;;;;2.28;1.02;;;3.70;99.90;;;;;;4988603;28;20081;-75
2021/01/21 09:12:19;;;;;;;2.55;0.88;;;4.00;99.00;;;;;;4987407;28;20497;-74
2021/01/21 09:15:01;;;;;;;2.13;0.82;;;4.40;97.80;;;;;;4969171;28;20071;-74
2021/01/21 09:17:27;;;;;;;1.23;0.50;;;4.60;97.70;;;;;;4974827;28;20214;-74
2021/01/21 09:19:52;;;;;;;1.55;0.60;;;4.80;96.50;;;;;;4970986;28;20618;-74
2021/01/21 09:22:22;;;;;;;1.48;0.85;;;5.20;94.90;;;;;;4970401;28;20229;-74
2021/01/21 09:25:02;;;;;;;0.88;0.63;;;5.30;94.20;;;;;;4977962;28;20587;-73
2021/01/21 09:27:29;;;;;;;1.23;0.60;;;5.30;94.00;;;;;;4977266;28;20105;-73
2021/01/21 09:29:58;;;;;;;1.00;0.65;;;5.10;94.40;;;;;;4974650;28;20117;-73
2021/01/21 09:32:34;;;;;;;2.92;0.50;;;5.40;93.20;;;;;;4980043;28;20237;-73
2021/01/21 09:35:12;;;;;;;0.88;0.40;;;5.60;92.40;;;;;;4978984;28;20133;-76
2021/01/21 09:37:49;;;;;;;1.70;0.60;;;5.70;92.40;;;;;;4969963;28;20106;-76
2021/01/21 09:40:17;;;;;;;0.98;0.65;;;5.80;91.60;;;;;;4968968;28;20137;-76
2021/01/21 09:42:43;;;;;;;1.10;0.75;;;6.00;91.00;;;;;;4983488;28;20622;-73
2021/01/21 09:45:09;;;;;;;0.52;0.35;;;6.30;89.60;;;;;;4977589;28;20079;-74
2021/01/21 09:47:35;;;;;;;0.47;0.32;;;6.50;87.20;;;;;;4983723;28;20530;-73
2021/01/21 09:50:02;;;;;;;0.73;0.30;;;6.80;86.10;;;;;;4974292;28;20112;-75
2021/01/21 09:52:28;;;;;;;0.40;0.30;;;7.00;81.20;;;;;;4969075;28;20091;-74
2021/01/21 09:54:54;;;;;;;0.88;0.40;;;7.00;81.30;;;;;;4972274;28;20090;-74
2021/01/21 09:57:19;;;;;;;0.30;0.30;;;7.10;79.00;;;;;;4968841;28;20133;-75
2021/01/21 09:59:45;;;;;;;1.15;0.40;;;7.10;77.80;;;;;;4974064;28;20093;-73
2021/01/21 10:02:10;;;;;;;0.93;0.43;;;7.30;74.30;;;;;;4989033;28;20569;-74
2021/01/21 10:04:36;;;;;;;2.88;0.43;;;7.40;75.60;;;;;;4981666;28;20071;-74
2021/01/21 10:07:03;;;;;;;0.60;0.40;;;7.40;76.80;;;;;;4978843;28;20094;-74
2021/01/21 10:09:29;;;;;;;1.17;0.45;;;7.50;75.10;;;;;;4991003;28;20636;-74
2021/01/21 10:11:54;;;;;;;0.50;0.30;;;7.70;73.10;;;;;;4984489;28;20178;-74
2021/01/21 10:14:20;;;;;;;1.30;0.43;;;7.90;71.10;;;;;;4986751;28;20103;-73
2021/01/21 10:16:46;;;;;;;1.05;0.63;;;7.90;71.60;;;;;;4992717;28;20074;-73
2021/01/21 10:19:11;;;;;;;0.85;0.40;;;7.80;72.10;;;;;;4976378;28;20524;-74
2021/01/21 10:21:37;;;;;;;1.25;0.60;;;7.70;71.70;;;;;;4976684;28;20480;-73
2021/01/21 10:24:04;;;;;;;1.40;1.15;;;7.60;76.00;;;;;;4978946;28;20571;-73
2021/01/21 10:26:29;;;;;;;2.53;0.85;;;7.70;76.40;;;;;;4989695;28;20110;-74
2021/01/21 10:28:55;;;;;;;2.03;0.73;;;7.60;75.70;;;;;;4981052;28;20074;-74
2021/01/21 10:31:21;;;;;;;2.25;0.93;;;7.60;76.10;;;;;;4977158;28;20107;-73
2021/01/21 10:33:46;;;;;;;1.52;0.93;;;7.80;76.30;;;;;;4977864;28;20099;-74
2021/01/21 10:36:12;;;;;;;3.20;0.65;;;7.90;72.20;;;;;;4972298;28;20079;-72
2021/01/21 10:38:39;;;;;;;1.48;0.65;;;8.00;72.10;;;;;;4974058;28;20082;-74
2021/01/21 10:41:08;;;;;;;1.75;0.70;;;8.20;69.70;;;;;;4973141;28;20098;-74
2021/01/21 10:43:34;;;;;;;4.65;0.75;;;8.10;69.40;;;;;;4973863;28;20536;-73
2021/01/21 10:46:00;;;;;;;1.65;0.45;;;8.10;70.00;;;;;;4983746;28;20082;-73
2021/01/21 10:48:26;;;;;;;1.00;0.40;;;8.10;68.60;;;;;;4986446;28;20083;-74
2021/01/21 10:50:53;;;;;;;1.88;0.60;;;8.10;69.00;;;;;;4976811;28;20083;-74
2021/01/21 10:53:18;;;;;;;2.05;0.40;;;8.20;67.80;;;;;;4976960;28;20118;-76
2021/01/21 10:55:44;;;;;;;1.90;0.60;;;8.10;69.80;;;;;;4980480;28;20118;-74
2021/01/21 10:58:09;;;;;;;0.88;0.60;;;8.00;68.90;;;;;;4982534;28;20532;-74
2021/01/21 11:00:36;;;;;;;1.40;0.60;;;7.90;69.60;;;;;;4985959;28;21895;-74
2021/01/21 11:03:02;;;;;;;0.80;0.40;;;8.00;69.10;;;;;;4987174;28;20165;-74
2021/01/21 11:05:27;;;;;;;0.68;0.55;;;8.10;68.70;;;;;;4985080;28;20079;-74
2021/01/21 11:07:53;;;;;;;0.73;0.52;;;8.00;69.20;;;;;;4983259;28;20087;-74
2021/01/21 11:10:18;;;;;;;1.52;0.60;;;8.00;69.00;;;;;;4996859;28;20082;-74
2021/01/21 11:12:45;;;;;;;1.25;0.75;;;8.00;70.40;;;;;;4982545;28;20097;-73
2021/01/21 11:15:12;;;;;;;1.92;0.77;;;7.90;70.40;;;;;;4973039;28;20082;-74
2021/01/21 11:17:37;;;;;;;2.70;0.63;;;7.90;70.90;;;;;;4971965;28;20085;-74
2021/01/21 11:20:04;;;;;;;2.38;0.98;;;7.90;70.20;;;;;;4972311;28;20268;-74
2021/01/21 11:22:30;;;;;;;1.83;1.27;;;7.80;71.50;;;;;;4976235;28;20095;-74
2021/01/21 11:24:56;;;;;;;1.65;1.25;;;7.80;71.70;;;;;;4981716;28;20086;-74
2021/01/21 11:27:22;;;;;;;2.33;1.30;;;7.80;71.50;;;;;;4985331;28;20166;-74
2021/01/21 11:29:47;;;;;;;2.75;1.25;;;8.00;69.90;;;;;;4975083;28;20079;-74
2021/01/21 11:32:13;;;;;;;1.33;0.93;;;8.10;68.40;;;;;;4981456;28;20079;-75
2021/01/21 11:34:38;;;;;;;1.42;0.70;;;8.00;69.40;;;;;;4971570;28;20071;-73
2021/01/21 11:37:04;;;;;;;1.65;0.80;;;8.20;67.70;;;;;;4976124;28;20125;-74
2021/01/21 11:39:29;;;;;;;2.30;1.20;;;8.30;67.50;;;;;;4971230;28;20443;-73
2021/01/21 11:41:55;;;;;;;4.88;0.90;;;8.40;67.00;;;;;;4974314;28;20547;-73
2021/01/21 11:44:20;;;;;;;2.97;0.63;;;8.50;66.80;;;;;;4982792;28;20090;-73
2021/01/21 11:46:46;;;;;;;0.95;0.50;;;8.30;67.30;;;;;;4972280;28;20083;-73
2021/01/21 11:49:11;;;;;;;0.90;0.50;;;8.40;67.50;;;;;;4971556;28;20083;-73
2021/01/21 11:51:37;;;;;;;1.52;0.63;;;8.50;66.20;;;;;;4971953;28;20083;-74
2021/01/21 11:54:03;;;;;;;1.50;0.60;;;8.30;68.70;;;;;;4990959;28;20097;-74
2021/01/21 11:56:29;;;;;;;1.05;0.52;;;8.20;69.10;;;;;;4987039;28;20087;-73
2021/01/21 11:58:54;;;;;;;0.75;0.47;;;8.30;67.80;;;;;;4973467;28;20087;-74
2021/01/21 12:01:22;;;;;;;2.38;0.73;;;8.30;67.60;;;;;;4980452;28;20133;-74
2021/01/21 12:03:48;;;;;;;1.85;0.80;;;8.40;66.90;;;;;;4980097;28;20095;-74
2021/01/21 12:06:13;;;;;;;1.02;0.52;;;8.60;66.10;;;;;;4981772;28;20094;-75
2021/01/21 12:08:39;;;;;;;2.65;0.98;;;8.90;65.50;;;;;;4977187;28;20090;-74
2021/01/21 12:11:05;;;;;;;1.42;0.60;;;9.00;65.40;;;;;;4986642;28;20173;-74
2021/01/21 12:13:30;;;;;;;1.60;0.57;;;8.80;68.90;;;;;;4985704;28;20099;-74
2021/01/21 12:15:59;;;;;;;0.68;0.43;;;9.00;65.50;;;;;;4979197;28;20137;-73
2021/01/21 12:18:25;;;;;;;0.77;0.55;;;9.10;64.80;;;;;;4977533;28;20094;-76
2021/01/21 12:20:51;;;;;;;0.82;0.40;;;9.10;65.00;;;;;;4979759;28;20099;-74
2021/01/21 12:23:16;;;;;;;0.82;0.57;;;9.30;63.70;;;;;;4974775;28;20095;-74
2021/01/21 12:25:42;;;;;;;1.95;0.98;;;9.30;63.80;;;;;;4982750;28;20198;-75
2021/01/21 12:28:07;;;;;;;7.30;3.17;;;9.50;62.60;;;;;;4970104;28;20106;-74
2021/01/21 12:30:33;;;;;;;2.20;1.35;;;9.60;62.30;;;;;;4975480;28;20148;-75
2021/01/21 12:32:59;;;;;;;1.27;0.57;;;9.70;60.90;;;;;;4973573;28;20207;-75
2021/01/21 12:35:24;;;;;;;1.48;0.70;;;9.90;59.00;;;;;;4982524;28;20451;-75
2021/01/21 12:37:50;;;;;;;2.08;0.60;;;10.00;58.60;;;;;;4983537;28;20084;-76
2021/01/21 12:40:15;;;;;;;1.10;0.45;;;10.00;58.70;;;;;;4970375;28;20100;-73
2021/01/21 12:42:41;;;;;;;1.08;0.47;;;10.00;58.70;;;;;;4983503;28;20095;-74
2021/01/21 12:45:07;;;;;;;1.00;0.50;;;10.10;57.80;;;;;;4984072;28;20479;-74
2021/01/21 12:47:32;;;;;;;0.80;0.40;;;10.00;58.20;;;;;;4968490;28;20110;-76
2021/01/21 12:49:58;;;;;;;0.65;0.35;;;10.00;57.40;;;;;;4974777;28;20171;-75